createdAt,value
2022-08-24T00:00:40.462Z,597.22
2022-08-24T00:03:11.769Z,260.81
2022-08-24T00:05:39.422Z,597.84
2022-08-24T00:08:06.804Z,934.91
2022-08-24T00:10:34.354Z,1608.41
2022-08-24T00:13:03.591Z,1944.22
2022-08-24T00:15:31.214Z,2280.00
2022-08-24T00:17:58.756Z,1943.06
2022-08-24T00:20:26.748Z,1605.91
2022-08-24T00:22:54.159Z,1269.19
2022-08-24T00:25:21.989Z,596.16
2022-08-24T00:27:49.404Z,596.13
2022-08-24T00:30:20.595Z,259.66
2022-08-24T00:32:49.610Z,-413.16
2022-08-24T00:35:18.301Z,260.31
2022-08-24T00:37:45.787Z,596.91
2022-08-24T00:40:15.774Z,933.94
2022-08-24T00:42:43.204Z,1944.41
2022-08-24T00:45:14.145Z,2617.94
2022-08-24T00:47:47.883Z,2954.97
2022-08-24T00:50:20.422Z,3292.03
2022-08-24T00:52:51.602Z,3627.81
2022-08-24T00:55:23.280Z,3626.94
2022-08-24T00:57:56.577Z,3290.09
2022-08-24T01:00:27.364Z,2954.13
2022-08-24T01:03:01.540Z,2953.44
2022-08-24T01:05:28.884Z,2953.28
2022-08-24T01:07:56.326Z,3290.09
2022-08-24T01:10:26.746Z,3290.09
2022-08-24T01:13:00.466Z,3625.84
2022-08-24T01:15:30.138Z,3289.28
2022-08-24T01:18:17.119Z,2953.28
2022-08-24T01:20:49.202Z,3289.00
2022-08-24T01:23:36.336Z,2951.56
2022-08-24T01:26:05.049Z,2278.81
2022-08-24T01:28:33.341Z,1942.72
2022-08-24T01:31:04.461Z,1943.16
2022-08-24T01:33:33.004Z,1943.53
2022-08-24T01:36:03.604Z,2280.69
2022-08-24T01:38:32.816Z,2617.56
2022-08-24T01:41:02.643Z,2954.72
2022-08-24T01:43:30.379Z,3291.91
2022-08-24T01:45:58.708Z,3963.53
2022-08-24T01:48:26.292Z,3625.63
2022-08-24T01:50:53.728Z,2951.72
2022-08-24T01:53:21.167Z,2278.63
2022-08-24T01:55:50.172Z,1605.53
2022-08-24T01:58:17.599Z,1605.50
2022-08-24T02:00:45.667Z,1268.69
2022-08-24T02:03:13.108Z,1268.13
2022-08-24T02:05:40.720Z,931.56
2022-08-24T02:08:08.197Z,259.09
2022-08-24T02:10:36.112Z,595.06
2022-08-24T02:13:05.354Z,595.06
2022-08-24T02:15:35.816Z,-77.53
2022-08-24T02:18:03.248Z,259.09
2022-08-24T02:20:30.745Z,259.16
2022-08-24T02:22:58.754Z,931.47
2022-08-24T02:25:30.083Z,930.63
2022-08-24T02:27:58.075Z,929.94
2022-08-24T02:30:28.131Z,257.41
2022-08-24T02:32:55.552Z,-414.78
2022-08-24T02:35:23.687Z,-750.91
2022-08-24T02:37:52.148Z,-414.94
2022-08-24T02:40:19.864Z,-414.97
2022-08-24T02:42:48.035Z,-414.81
2022-08-24T02:45:15.637Z,256.97
2022-08-24T02:47:45.139Z,-79.16
2022-08-24T02:50:15.293Z,-79.38
2022-08-24T02:52:43.990Z,-79.28
2022-08-24T02:55:14.177Z,-79.22
2022-08-24T02:57:41.880Z,256.78
2022-08-24T03:00:13.159Z,256.81
2022-08-24T03:02:41.189Z,256.63
2022-08-24T03:05:10.867Z,256.50
2022-08-24T03:07:38.699Z,928.00
2022-08-24T03:10:07.635Z,591.84
2022-08-24T03:12:35.461Z,256.34
2022-08-24T03:15:03.232Z,-79.72
2022-08-24T03:17:31.331Z,-79.63
2022-08-24T03:19:58.773Z,-415.44
2022-08-24T03:22:27.628Z,-79.38
2022-08-24T03:24:55.017Z,-79.53
2022-08-24T03:27:22.524Z,-79.88
2022-08-24T03:29:49.991Z,-415.78
2022-08-24T03:32:17.724Z,-751.56
2022-08-24T03:34:45.775Z,-1087.47
2022-08-24T03:37:13.601Z,-1087.44
2022-08-24T03:39:42.335Z,-1087.44
2022-08-24T03:42:09.760Z,-751.69
2022-08-24T03:44:37.158Z,-751.81
2022-08-24T03:47:05.088Z,-1423.56
2022-08-24T03:49:32.826Z,-1759.38
2022-08-24T03:52:00.207Z,-1759.38
2022-08-24T03:54:27.810Z,-2095.25
2022-08-24T03:56:56.534Z,-2095.28
2022-08-24T03:59:24.088Z,-2431.19
2022-08-24T04:01:51.773Z,-2095.28
2022-08-24T04:04:19.209Z,-2095.28
2022-08-24T04:06:46.847Z,-1759.31
2022-08-24T04:09:16.347Z,-1759.28
2022-08-24T04:11:45.987Z,-1423.16
2022-08-24T04:14:26.563Z,-1087.13
2022-08-24T04:16:57.510Z,-1087.16
2022-08-24T04:19:25.489Z,-751.06
2022-08-24T04:21:53.247Z,-750.94
2022-08-24T04:24:21.367Z,-750.75
2022-08-24T04:26:48.813Z,-414.38
2022-08-24T04:29:20.333Z,-77.91
2022-08-24T04:31:48.481Z,595.06
2022-08-24T04:34:18.411Z,1268.09
2022-08-24T04:36:47.129Z,2277.56
2022-08-24T04:39:15.610Z,3288.66
2022-08-24T04:41:43.009Z,4299.50
2022-08-24T04:44:11.924Z,5647.38
2022-08-24T04:46:40.782Z,6996.16
2022-08-24T04:49:08.410Z,8682.72
2022-08-24T04:51:36.512Z,10034.03
2022-08-24T04:54:04.777Z,12399.00
2022-08-24T04:56:32.179Z,13750.97
2022-08-24T04:59:03.021Z,15784.31
2022-08-24T05:01:32.611Z,18494.56
2022-08-24T05:04:02.510Z,21890.56
2022-08-24T05:06:32.345Z,25629.25
2022-08-24T05:09:00.358Z,28688.38
2022-08-24T05:11:28.952Z,31073.63
2022-08-24T05:13:58.617Z,37193.16
2022-08-24T05:16:27.699Z,37530.66
2022-08-24T05:18:55.595Z,38214.78
2022-08-24T05:21:25.958Z,39576.91
2022-08-24T05:23:53.528Z,39921.59
2022-08-24T05:26:25.016Z,40609.88
2022-08-24T05:28:54.844Z,42661.19
2022-08-24T05:31:25.754Z,46752.75
2022-08-24T05:33:53.265Z,51186.31
2022-08-24T05:36:23.412Z,51529.31
2022-08-24T05:38:54.386Z,51534.09
2022-08-24T05:41:22.449Z,52557.63
2022-08-24T05:43:50.109Z,51885.94
2022-08-24T05:46:17.813Z,56341.06
2022-08-24T05:48:50.541Z,54965.34
2022-08-24T05:51:20.758Z,53259.75
2022-08-24T05:53:48.596Z,53591.31
2022-08-24T05:56:19.632Z,52572.28
2022-08-24T05:58:48.073Z,51203.19
2022-08-24T06:01:18.261Z,51558.50
2022-08-24T06:03:46.451Z,53275.03
2022-08-24T06:06:14.687Z,55338.28
2022-08-24T06:08:45.222Z,57412.00
2022-08-24T06:11:12.998Z,59467.56
2022-08-24T06:13:41.765Z,60817.88
2022-08-24T06:16:21.941Z,55664.63
2022-08-24T06:18:50.734Z,53965.63
2022-08-24T06:21:20.819Z,56725.91
2022-08-24T06:23:49.189Z,66369.38
2022-08-24T06:26:34.285Z,66033.03
2022-08-24T06:29:03.318Z,68081.22
2022-08-24T06:31:39.461Z,71865.69
2022-08-24T06:34:07.903Z,71868.72
2022-08-24T06:36:35.379Z,73610.72
2022-08-24T06:39:02.932Z,73626.16
2022-08-24T06:41:30.542Z,79141.75
2022-08-24T06:43:58.232Z,78812.81
2022-08-24T06:46:30.717Z,79874.88
2022-08-24T06:49:00.299Z,83025.22
2022-08-24T06:51:30.738Z,92771.47
2022-08-24T06:53:58.594Z,117497.09
2022-08-24T06:56:26.035Z,122773.34
2022-08-24T06:58:53.843Z,118566.19
2022-08-24T07:01:23.876Z,125559.16
2022-08-24T07:03:53.599Z,123442.09
2022-08-24T07:06:21.465Z,116084.97
2022-08-24T07:08:49.278Z,106992.78
2022-08-24T07:11:18.558Z,101093.94
2022-08-24T07:13:47.374Z,104588.50
2022-08-24T07:16:15.503Z,103561.47
2022-08-24T07:18:47.322Z,100404.59
2022-08-24T07:21:19.719Z,103187.25
2022-08-24T07:23:48.187Z,102816.66
2022-08-24T07:26:21.628Z,100732.47
2022-08-24T07:28:50.424Z,99678.69
2022-08-24T07:31:17.984Z,96603.59
2022-08-24T07:33:45.807Z,103923.78
2022-08-24T07:36:21.941Z,110561.47
2022-08-24T07:38:53.061Z,116528.81
2022-08-24T07:41:46.861Z,138306.13
2022-08-24T07:44:09.931Z,122810.25
2022-08-24T07:46:38.968Z,122489.47
2022-08-24T07:49:13.365Z,119342.63
2022-08-24T07:51:54.754Z,129892.69
2022-08-24T07:54:23.583Z,137623.88
2022-08-24T07:56:51.082Z,137353.22
2022-08-24T07:59:19.159Z,152939.22
2022-08-24T08:01:46.642Z,155876.91
2022-08-24T08:04:16.228Z,155949.78
2022-08-24T08:06:44.027Z,155826.25
2022-08-24T08:09:11.576Z,155863.94
2022-08-24T08:11:40.279Z,155839.25
2022-08-24T08:14:07.941Z,155840.53
2022-08-24T08:16:35.397Z,155889.91
2022-08-24T08:19:11.080Z,155970.59
2022-08-24T08:22:00.442Z,155910.78
2022-08-24T08:24:28.367Z,155889.91
2022-08-24T08:26:59.276Z,155804.16
2022-08-24T08:29:27.280Z,155921.19
2022-08-24T08:31:55.064Z,156000.47
2022-08-24T08:34:22.531Z,155978.38
2022-08-24T08:36:50.469Z,155935.47
2022-08-24T08:39:20.513Z,156027.78
2022-08-24T08:42:10.264Z,155938.09
2022-08-24T08:44:52.181Z,155965.38
2022-08-24T08:47:37.524Z,156004.38
2022-08-24T08:50:10.756Z,155887.34
2022-08-24T08:53:07.448Z,155840.53
2022-08-24T08:55:39.813Z,155801.56
2022-08-24T08:58:20.793Z,155831.47
2022-08-24T09:01:05.162Z,155952.38
2022-08-24T09:03:46.436Z,156092.88
2022-08-24T09:06:28.501Z,156170.91
2022-08-24T09:09:11.236Z,156199.50
2022-08-24T09:11:51.459Z,156126.66
2022-08-24T09:14:48.946Z,156233.31
2022-08-24T09:17:37.360Z,156425.94
2022-08-24T09:20:20.265Z,156575.69
2022-08-24T09:22:49.563Z,156620.03
2022-08-24T09:25:26.643Z,156644.75
2022-08-24T09:28:08.397Z,156709.88
2022-08-24T09:30:57.477Z,156756.78
2022-08-24T09:33:32.114Z,156677.34
2022-08-24T09:36:09.284Z,156347.88
2022-08-24T09:38:58.823Z,156330.94
2022-08-24T09:42:17.894Z,156353.06
2022-08-24T09:45:12.700Z,156178.69
2022-08-24T09:48:00.561Z,156261.94
2022-08-24T09:51:00.987Z,156371.28
2022-08-24T09:54:00.094Z,156485.91
2022-08-24T09:57:09.385Z,156498.91
2022-08-24T09:59:57.101Z,156553.59
2022-08-24T10:02:40.914Z,156668.19
2022-08-24T10:05:23.880Z,156660.41
2022-08-24T10:08:00.274Z,156629.13
2022-08-24T10:10:33.158Z,156571.78
2022-08-24T10:13:11.441Z,156725.50
2022-08-24T10:15:52.821Z,156831.06
2022-08-24T10:18:35.414Z,156834.97
2022-08-24T10:21:19.052Z,156629.13
2022-08-24T10:24:07.726Z,156600.44
2022-08-24T10:26:49.017Z,156605.66
2022-08-24T10:29:31.771Z,156636.97
2022-08-24T10:32:14.747Z,156738.53
2022-08-24T10:34:58.239Z,156910.53
2022-08-24T10:38:25.659Z,156871.44
2022-08-24T10:41:09.672Z,156648.69
2022-08-24T10:44:02.420Z,156541.88
2022-08-24T10:46:39.984Z,156592.63
2022-08-24T10:49:35.570Z,156530.13
2022-08-24T10:52:36.548Z,156600.44
2022-08-24T10:55:15.708Z,156584.81
2022-08-24T10:57:58.708Z,156571.78
2022-08-24T11:00:30.065Z,156627.81
2022-08-24T11:03:13.255Z,156571.78
2022-08-24T11:05:47.831Z,156587.41
2022-08-24T11:08:22.684Z,156560.06
2022-08-24T11:11:07.790Z,156547.06
2022-08-24T11:13:38.468Z,156541.88
2022-08-24T11:16:07.554Z,156504.09
2022-08-24T11:18:49.399Z,156498.91
2022-08-24T11:21:33.076Z,156500.22
2022-08-24T11:24:05.494Z,156545.75
2022-08-24T11:26:48.216Z,156480.66
2022-08-24T11:29:23.149Z,156452.03
2022-08-24T11:31:52.699Z,156475.44
2022-08-24T11:34:32.549Z,156402.53
2022-08-24T11:37:00.477Z,156373.91
2022-08-24T11:39:33.506Z,156441.63
2022-08-24T11:42:07.383Z,156485.91
2022-08-24T11:44:42.349Z,156489.75
2022-08-24T11:47:28.396Z,156660.41
2022-08-24T11:50:02.391Z,156795.91
2022-08-24T11:52:45.917Z,156894.94
2022-08-24T11:55:24.448Z,156788.06
2022-08-24T11:57:57.920Z,156748.94
2022-08-24T12:00:33.151Z,156709.88
2022-08-24T12:03:06.060Z,156704.69
2022-08-24T12:05:44.233Z,156679.91
2022-08-24T12:08:22.277Z,156682.50
2022-08-24T12:10:55.656Z,156621.34
2022-08-24T12:13:34.213Z,156566.59
2022-08-24T12:16:09.957Z,156561.38
2022-08-24T12:18:48.873Z,156554.91
2022-08-24T12:21:18.622Z,156577.00
2022-08-24T12:23:49.707Z,156659.09
2022-08-24T12:26:26.192Z,156702.06
2022-08-24T12:28:57.347Z,156735.91
2022-08-24T12:31:37.148Z,156816.72
2022-08-24T12:34:12.092Z,156871.44
2022-08-24T12:36:47.872Z,156876.66
2022-08-24T12:39:19.896Z,156884.47
2022-08-24T12:41:58.721Z,156889.69
2022-08-24T12:44:33.071Z,156861.03
2022-08-24T12:47:02.919Z,156806.31
2022-08-24T12:49:39.944Z,156755.47
2022-08-24T12:52:32.012Z,156778.97
2022-08-24T12:55:23.659Z,156834.97
2022-08-24T12:58:01.723Z,156866.25
2022-08-24T13:00:34.890Z,156853.22
2022-08-24T13:03:07.573Z,156823.25
2022-08-24T13:05:44.735Z,156842.78
2022-08-24T13:08:16.512Z,156936.63
2022-08-24T13:10:52.412Z,156995.28
2022-08-24T13:13:41.676Z,156997.91
2022-08-24T13:16:09.887Z,157060.44
2022-08-24T13:18:52.017Z,156974.47
2022-08-24T13:21:42.621Z,157069.59
2022-08-24T13:24:52.560Z,157043.53
2022-08-24T13:28:02.135Z,157014.88
2022-08-24T13:30:50.757Z,156978.34
2022-08-24T13:33:21.287Z,157050.03
2022-08-24T13:36:05.080Z,156970.53
2022-08-24T13:38:59.440Z,156879.28
2022-08-24T13:41:39.215Z,156924.84
2022-08-24T13:44:11.896Z,156986.19
2022-08-24T13:46:49.082Z,157038.31
2022-08-24T13:49:29.882Z,157001.84
2022-08-24T13:52:11.378Z,156921.00
2022-08-24T13:54:46.622Z,156943.19
2022-08-24T13:57:32.364Z,156866.25
2022-08-24T14:00:13.031Z,156866.25
2022-08-24T14:02:52.028Z,156855.81
2022-08-24T14:05:30.658Z,156879.28
2022-08-24T14:08:12.280Z,156870.13
2022-08-24T14:10:53.791Z,156940.56
2022-08-24T14:13:34.881Z,156922.28
2022-08-24T14:16:24.586Z,156924.84
2022-08-24T14:19:00.560Z,156949.72
2022-08-24T14:21:38.545Z,156902.72
2022-08-24T14:24:11.817Z,156891.00
2022-08-24T14:27:08.421Z,156921.00
2022-08-24T14:29:42.183Z,156905.34
2022-08-24T14:32:29.976Z,156881.91
2022-08-24T14:35:15.782Z,156872.75
2022-08-24T14:37:56.775Z,156861.03
2022-08-24T14:40:37.057Z,156834.97
2022-08-24T14:43:28.526Z,156802.38
2022-08-24T14:46:12.214Z,156801.09
2022-08-24T14:48:50.308Z,156788.06
2022-08-24T14:51:38.980Z,156790.69
2022-08-24T14:54:23.602Z,156754.16
2022-08-24T14:57:03.450Z,156705.94
2022-08-24T14:59:45.510Z,156696.84
2022-08-24T15:02:48.782Z,156700.78
2022-08-24T15:05:23.603Z,156678.59
2022-08-24T15:07:58.066Z,156668.19
2022-08-24T15:10:28.797Z,156652.56
2022-08-24T15:13:03.850Z,156590.03
2022-08-24T15:15:36.008Z,156564.00
2022-08-24T15:18:10.770Z,156603.03
2022-08-24T15:20:58.258Z,156614.81
2022-08-24T15:23:37.568Z,156644.75
2022-08-24T15:26:10.055Z,156652.56
2022-08-24T15:28:39.206Z,156678.59
2022-08-24T15:31:25.732Z,156685.13
2022-08-24T15:33:56.513Z,156689.06
2022-08-24T15:36:24.242Z,156700.78
2022-08-24T15:38:51.691Z,156696.84
2022-08-24T15:41:20.879Z,156687.75
2022-08-24T15:43:57.836Z,156698.16
2022-08-24T15:46:29.096Z,156713.78
2022-08-24T15:49:03.376Z,156738.53
2022-08-24T15:51:47.368Z,156712.47
2022-08-24T15:54:28.438Z,156730.75
2022-08-24T15:56:59.771Z,156748.94
2022-08-24T15:59:31.646Z,156735.91
2022-08-24T16:02:28.294Z,156746.38
2022-08-24T16:05:10.043Z,156756.78
2022-08-24T16:07:59.150Z,156748.94
2022-08-24T16:10:31.159Z,156756.78
2022-08-24T16:13:08.116Z,156743.75
2022-08-24T16:15:46.787Z,156725.50
2022-08-24T16:18:15.456Z,156767.19
2022-08-24T16:20:43.585Z,156777.66
2022-08-24T16:23:14.095Z,156761.97
2022-08-24T16:25:45.358Z,156733.31
2022-08-24T16:28:34.604Z,156713.78
2022-08-24T16:31:07.570Z,156722.88
2022-08-24T16:33:43.719Z,156681.22
2022-08-24T16:36:17.920Z,156678.59
2022-08-24T16:38:48.331Z,156672.13
2022-08-24T16:41:18.570Z,156683.81
2022-08-24T16:43:47.062Z,156663.00
2022-08-24T16:46:21.226Z,156600.44
2022-08-24T16:48:48.825Z,156600.44
2022-08-24T16:51:16.248Z,156593.94
2022-08-24T16:53:43.703Z,156595.25
2022-08-24T16:56:14.810Z,156603.03
2022-08-24T16:58:44.672Z,156556.16
2022-08-24T17:01:13.773Z,156580.94
2022-08-24T17:03:42.597Z,156541.88
2022-08-24T17:06:12.248Z,156539.25
2022-08-24T17:08:40.716Z,156502.78
2022-08-24T17:11:08.525Z,156522.31
2022-08-24T17:13:51.341Z,156517.09
2022-08-24T17:16:21.142Z,156565.28
2022-08-24T17:18:49.893Z,156537.94
2022-08-24T17:21:17.752Z,156501.53
2022-08-24T17:23:45.209Z,156493.69
2022-08-24T17:26:20.677Z,156441.63
2022-08-24T17:28:51.612Z,156498.91
2022-08-24T17:31:19.291Z,156436.34
2022-08-24T17:33:46.732Z,156379.13
2022-08-24T17:36:16.626Z,156360.88
2022-08-24T17:38:49.420Z,156317.94
2022-08-24T17:41:21.057Z,156295.84
2022-08-24T17:43:48.448Z,156267.22
2022-08-24T17:46:16.087Z,156277.59
2022-08-24T17:48:45.093Z,156298.41
2022-08-24T17:51:13.497Z,156258.03
2022-08-24T17:53:42.544Z,156233.31
2022-08-24T17:56:13.006Z,156245.00
2022-08-24T17:58:55.271Z,156235.94
2022-08-24T18:01:24.295Z,156176.06
2022-08-24T18:03:51.845Z,156134.44
2022-08-24T18:06:20.469Z,156126.66
2022-08-24T18:08:49.739Z,156087.66
2022-08-24T18:11:17.365Z,156085.03
2022-08-24T18:13:44.759Z,156061.59
2022-08-24T18:16:16.448Z,156014.78
2022-08-24T18:18:44.243Z,155988.78
2022-08-24T18:21:11.674Z,155960.16
2022-08-24T18:23:43.576Z,155936.78
2022-08-24T18:26:15.539Z,155942.00
2022-08-24T18:28:44.275Z,155916.00
2022-08-24T18:31:12.561Z,155869.16
2022-08-24T18:33:42.950Z,155806.78
2022-08-24T18:36:10.327Z,155802.88
2022-08-24T18:38:38.087Z,155793.78
2022-08-24T18:41:05.653Z,155778.19
2022-08-24T18:43:34.484Z,155759.97
2022-08-24T18:46:02.068Z,155749.59
2022-08-24T18:48:29.511Z,155718.41
2022-08-24T18:50:57.468Z,155726.22
2022-08-24T18:53:27.418Z,155687.16
2022-08-24T18:55:55.102Z,155645.59
2022-08-24T18:58:22.513Z,150040.69
2022-08-24T19:00:51.677Z,134800.75
2022-08-24T19:03:22.948Z,129165.41
2022-08-24T19:05:50.530Z,126361.47
2022-08-24T19:08:17.939Z,123913.31
2022-08-24T19:10:45.835Z,122156.31
2022-08-24T19:13:15.738Z,114416.97
2022-08-24T19:15:46.629Z,104639.16
2022-08-24T19:18:17.518Z,96255.91
2022-08-24T19:20:49.065Z,88615.97
2022-08-24T19:23:20.682Z,86884.69
2022-08-24T19:25:48.196Z,80632.44
2022-08-24T19:28:15.732Z,80308.59
2022-08-24T19:30:44.488Z,81664.66
2022-08-24T19:33:14.471Z,70248.53
2022-08-24T19:35:43.415Z,67488.47
2022-08-24T19:38:10.856Z,66793.09
2022-08-24T19:40:39.163Z,64371.28
2022-08-24T19:43:08.661Z,60933.13
2022-08-24T19:45:54.693Z,58180.97
2022-08-24T19:48:23.262Z,57152.66
2022-08-24T19:50:53.170Z,57146.88
2022-08-24T19:53:20.922Z,56809.63
2022-08-24T19:55:50.325Z,58518.22
2022-08-24T19:58:24.023Z,54737.25
2022-08-24T20:00:57.969Z,52667.44
2022-08-24T20:03:25.745Z,52336.00
2022-08-24T20:05:55.543Z,54400.00
2022-08-24T20:08:23.041Z,55421.41
2022-08-24T20:10:52.918Z,52330.69
2022-08-24T20:13:20.619Z,51977.69
2022-08-24T20:15:48.157Z,48885.59
2022-08-24T20:18:16.464Z,45117.34
2022-08-24T20:20:44.124Z,44777.59
2022-08-24T20:23:15.446Z,41695.50
2022-08-24T20:25:42.854Z,40662.56
2022-08-24T20:28:28.686Z,37932.00
2022-08-24T20:30:56.767Z,35870.59
2022-08-24T20:33:24.806Z,33147.72
2022-08-24T20:35:52.560Z,33144.28
2022-08-24T20:38:22.966Z,31443.13
2022-08-24T20:40:51.290Z,31441.22
2022-08-24T20:43:19.548Z,29733.88
2022-08-24T20:45:47.345Z,28382.06
2022-08-24T20:48:15.510Z,30766.44
2022-08-24T20:50:44.004Z,31445.28
2022-08-24T20:56:12.434Z,34171.97
2022-08-24T20:58:41.044Z,34168.44
2022-08-24T21:01:09.572Z,33827.69
2022-08-24T21:03:37.445Z,33823.91
2022-08-24T21:06:07.056Z,32791.78
2022-08-24T21:08:34.912Z,30400.22
2022-08-24T21:11:02.320Z,27675.22
2022-08-24T21:13:31.027Z,25638.44
2022-08-24T21:15:58.783Z,24964.72
2022-08-24T21:18:26.445Z,24963.41
2022-08-24T21:21:00.743Z,24966.25
2022-08-24T21:23:31.733Z,25646.31
2022-08-24T21:26:00.100Z,25639.13
2022-08-24T21:28:27.645Z,24959.47
2022-08-24T21:30:56.434Z,24617.31
2022-08-24T21:33:41.469Z,23597.50
2022-08-24T21:36:09.513Z,23261.00
2022-08-24T21:38:37.058Z,24621.63
2022-08-24T21:41:06.891Z,25642.72
2022-08-24T21:43:34.356Z,25977.44
2022-08-24T21:46:03.251Z,24956.63
2022-08-24T21:48:30.723Z,24270.59
2022-08-24T21:50:58.532Z,22237.09
2022-08-24T21:53:28.701Z,22576.31
2022-08-24T21:55:56.801Z,23250.75
2022-08-24T21:58:25.881Z,22231.00
2022-08-24T22:00:53.381Z,21892.13
2022-08-24T22:03:32.723Z,21213.09
2022-08-24T22:06:08.485Z,20873.34
2022-08-24T22:08:36.243Z,20534.41
2022-08-24T22:11:03.688Z,20528.03
2022-08-24T22:13:31.145Z,19508.06
2022-08-24T22:15:58.592Z,17818.22
2022-08-24T22:18:26.097Z,17479.25
2022-08-24T22:20:55.574Z,16463.31
2022-08-24T22:23:24.083Z,16464.50
2022-08-24T22:25:51.731Z,16127.28
2022-08-24T22:28:19.124Z,16804.44
2022-08-24T22:30:48.744Z,16800.34
2022-08-24T22:33:16.516Z,16122.59
2022-08-24T22:35:45.667Z,16127.88
2022-08-24T22:38:14.432Z,17480.97
2022-08-24T22:40:43.063Z,17817.75
2022-08-24T22:43:10.728Z,17480.19
2022-08-24T22:45:38.516Z,17814.53
2022-08-24T22:48:06.066Z,16797.13
2022-08-24T22:50:33.475Z,16458.50
2022-08-24T22:53:01.567Z,15782.44
2022-08-24T22:55:32.819Z,16120.38
2022-08-24T22:58:00.507Z,15783.28
2022-08-24T23:00:27.899Z,15441.53
2022-08-24T23:02:55.278Z,14764.75
2022-08-24T23:05:22.748Z,14765.56
2022-08-24T23:07:50.239Z,14764.47
2022-08-24T23:10:17.704Z,14764.34
2022-08-24T23:12:46.996Z,15103.81
2022-08-24T23:15:14.569Z,15439.81
2022-08-24T23:17:42.701Z,14762.84
2022-08-24T23:20:10.326Z,14084.91
2022-08-24T23:22:39.969Z,13406.03
2022-08-24T23:25:09.702Z,12054.94
2022-08-24T23:27:38.697Z,11714.44
2022-08-24T23:30:11.335Z,11037.25
2022-08-24T23:32:39.156Z,10025.88
2022-08-24T23:35:07.539Z,9350.00
2022-08-24T23:37:34.999Z,8340.59
2022-08-24T23:40:03.017Z,8675.56
2022-08-24T23:42:30.419Z,8000.63
2022-08-24T23:44:57.819Z,7326.59
2022-08-24T23:47:26.820Z,6990.56
2022-08-24T23:49:55.435Z,6991.81
2022-08-24T23:52:26.515Z,6989.78
2022-08-24T23:54:56.321Z,7324.34
2022-08-24T23:57:37.954Z,6651.59
